sensor_id;sensor_type;location;lat;lon;timestamp;P1;durP1;ratioP1;P2;durP2;ratioP2
75823;SDS011;64457;51.976;9.834;2022-10-22T00:02:23;20.80;;;10.97;;
75823;SDS011;64457;51.976;9.834;2022-10-22T00:04:52;22.50;;;10.60;;
75823;SDS011;64457;51.976;9.834;2022-10-22T00:07:21;28.00;;;12.20;;
75823;SDS011;64457;51.976;9.834;2022-10-22T00:09:49;29.40;;;11.57;;
75823;SDS011;64457;51.976;9.834;2022-10-22T00:12:18;28.13;;;12.50;;
75823;SDS011;64457;51.976;9.834;2022-10-22T00:14:45;31.00;;;13.20;;
75823;SDS011;64457;51.976;9.834;2022-10-22T00:17:13;22.63;;;12.13;;
75823;SDS011;64457;51.976;9.834;2022-10-22T00:19:41;26.20;;;12.03;;
75823;SDS011;64457;51.976;9.834;2022-10-22T00:22:08;25.10;;;11.90;;
75823;SDS011;64457;51.976;9.834;2022-10-22T00:24:37;28.90;;;13.27;;
75823;SDS011;64457;51.976;9.834;2022-10-22T00:27:05;28.93;;;13.70;;
75823;SDS011;64457;51.976;9.834;2022-10-22T00:29:35;28.63;;;15.17;;
75823;SDS011;64457;51.976;9.834;2022-10-22T00:32:02;26.77;;;13.47;;
75823;SDS011;64457;51.976;9.834;2022-10-22T00:34:31;25.23;;;14.00;;
75823;SDS011;64457;51.976;9.834;2022-10-22T00:36:59;26.80;;;12.50;;
75823;SDS011;64457;51.976;9.834;2022-10-22T00:39:26;25.80;;;12.47;;
75823;SDS011;64457;51.976;9.834;2022-10-22T00:41:55;28.60;;;13.47;;
75823;SDS011;64457;51.976;9.834;2022-10-22T00:47:30;28.67;;;12.80;;
75823;SDS011;64457;51.976;9.834;2022-10-22T00:49:59;26.00;;;12.70;;
75823;SDS011;64457;51.976;9.834;2022-10-22T00:52:30;25.17;;;11.70;;
75823;SDS011;64457;51.976;9.834;2022-10-22T00:54:57;25.40;;;12.60;;
75823;SDS011;64457;51.976;9.834;2022-10-22T00:57:26;30.20;;;12.50;;
75823;SDS011;64457;51.976;9.834;2022-10-22T00:59:55;20.20;;;11.10;;
75823;SDS011;64457;51.976;9.834;2022-10-22T01:02:28;35.13;;;12.67;;
75823;SDS011;64457;51.976;9.834;2022-10-22T01:05:09;29.53;;;11.50;;
75823;SDS011;64457;51.976;9.834;2022-10-22T01:07:40;22.40;;;11.60;;
75823;SDS011;64457;51.976;9.834;2022-10-22T01:10:35;24.67;;;11.57;;
75823;SDS011;64457;51.976;9.834;2022-10-22T01:13:30;26.57;;;11.23;;
75823;SDS011;64457;51.976;9.834;2022-10-22T01:16:07;26.70;;;11.67;;
75823;SDS011;64457;51.976;9.834;2022-10-22T01:18:42;26.40;;;14.27;;
75823;SDS011;64457;51.976;9.834;2022-10-22T01:21:17;29.13;;;13.90;;
75823;SDS011;64457;51.976;9.834;2022-10-22T01:26:53;26.60;;;14.03;;
75823;SDS011;64457;51.976;9.834;2022-10-22T01:29:35;28.93;;;15.20;;
75823;SDS011;64457;51.976;9.834;2022-10-22T01:32:08;28.87;;;14.60;;
75823;SDS011;64457;51.976;9.834;2022-10-22T01:34:41;27.63;;;14.30;;
75823;SDS011;64457;51.976;9.834;2022-10-22T01:37:19;31.50;;;15.17;;
75823;SDS011;64457;51.976;9.834;2022-10-22T01:39:52;38.53;;;14.13;;
75823;SDS011;64457;51.976;9.834;2022-10-22T01:42:21;25.60;;;14.10;;
75823;SDS011;64457;51.976;9.834;2022-10-22T01:44:51;30.93;;;14.10;;
75823;SDS011;64457;51.976;9.834;2022-10-22T01:47:20;26.23;;;14.47;;
75823;SDS011;64457;51.976;9.834;2022-10-22T01:50:03;24.47;;;13.37;;
75823;SDS011;64457;51.976;9.834;2022-10-22T01:52:48;28.40;;;14.20;;
75823;SDS011;64457;51.976;9.834;2022-10-22T01:55:25;34.67;;;14.43;;
75823;SDS011;64457;51.976;9.834;2022-10-22T01:57:58;31.30;;;14.67;;
75823;SDS011;64457;51.976;9.834;2022-10-22T02:00:37;31.73;;;14.73;;
75823;SDS011;64457;51.976;9.834;2022-10-22T02:03:10;30.13;;;14.70;;
75823;SDS011;64457;51.976;9.834;2022-10-22T02:05:42;26.90;;;14.03;;
75823;SDS011;64457;51.976;9.834;2022-10-22T02:08:14;32.40;;;14.20;;
75823;SDS011;64457;51.976;9.834;2022-10-22T02:10:46;32.67;;;14.57;;
75823;SDS011;64457;51.976;9.834;2022-10-22T02:13:16;30.13;;;13.47;;
75823;SDS011;64457;51.976;9.834;2022-10-22T02:15:49;28.83;;;15.10;;
75823;SDS011;64457;51.976;9.834;2022-10-22T02:18:19;27.30;;;14.80;;
75823;SDS011;64457;51.976;9.834;2022-10-22T02:20:50;28.37;;;14.70;;
75823;SDS011;64457;51.976;9.834;2022-10-22T02:23:18;26.70;;;14.30;;
75823;SDS011;64457;51.976;9.834;2022-10-22T02:25:47;28.73;;;15.47;;
75823;SDS011;64457;51.976;9.834;2022-10-22T02:28:21;26.77;;;13.67;;
75823;SDS011;64457;51.976;9.834;2022-10-22T02:30:57;29.50;;;14.77;;
75823;SDS011;64457;51.976;9.834;2022-10-22T02:33:31;28.10;;;14.03;;
75823;SDS011;64457;51.976;9.834;2022-10-22T02:36:02;31.77;;;14.13;;
75823;SDS011;64457;51.976;9.834;2022-10-22T02:38:34;27.60;;;14.90;;
75823;SDS011;64457;51.976;9.834;2022-10-22T02:41:02;34.93;;;16.57;;
75823;SDS011;64457;51.976;9.834;2022-10-22T02:43:30;30.17;;;15.90;;
75823;SDS011;64457;51.976;9.834;2022-10-22T02:46:11;30.03;;;16.00;;
75823;SDS011;64457;51.976;9.834;2022-10-22T02:48:39;36.53;;;16.63;;
75823;SDS011;64457;51.976;9.834;2022-10-22T02:51:06;42.03;;;16.50;;
75823;SDS011;64457;51.976;9.834;2022-10-22T02:53:33;32.63;;;17.27;;
75823;SDS011;64457;51.976;9.834;2022-10-22T02:56:02;31.57;;;17.23;;
75823;SDS011;64457;51.976;9.834;2022-10-22T02:58:32;39.13;;;17.10;;
75823;SDS011;64457;51.976;9.834;2022-10-22T03:01:02;41.37;;;18.00;;
75823;SDS011;64457;51.976;9.834;2022-10-22T03:03:32;35.60;;;17.30;;
75823;SDS011;64457;51.976;9.834;2022-10-22T03:06:01;40.33;;;18.47;;
75823;SDS011;64457;51.976;9.834;2022-10-22T03:08:29;38.70;;;18.27;;
75823;SDS011;64457;51.976;9.834;2022-10-22T03:10:57;35.50;;;17.63;;
75823;SDS011;64457;51.976;9.834;2022-10-22T03:13:25;40.30;;;17.20;;
75823;SDS011;64457;51.976;9.834;2022-10-22T03:15:53;38.00;;;17.73;;
75823;SDS011;64457;51.976;9.834;2022-10-22T03:18:20;31.43;;;15.93;;
75823;SDS011;64457;51.976;9.834;2022-10-22T03:20:49;35.77;;;16.97;;
75823;SDS011;64457;51.976;9.834;2022-10-22T03:23:18;36.23;;;16.80;;
75823;SDS011;64457;51.976;9.834;2022-10-22T03:25:46;35.23;;;17.27;;
75823;SDS011;64457;51.976;9.834;2022-10-22T03:28:15;32.93;;;16.13;;
75823;SDS011;64457;51.976;9.834;2022-10-22T03:30:44;32.53;;;16.40;;
75823;SDS011;64457;51.976;9.834;2022-10-22T03:33:11;32.23;;;17.13;;
75823;SDS011;64457;51.976;9.834;2022-10-22T03:35:40;26.40;;;14.73;;
75823;SDS011;64457;51.976;9.834;2022-10-22T03:38:12;34.27;;;16.43;;
75823;SDS011;64457;51.976;9.834;2022-10-22T03:40:40;34.90;;;14.97;;
75823;SDS011;64457;51.976;9.834;2022-10-22T03:43:10;27.93;;;14.67;;
75823;SDS011;64457;51.976;9.834;2022-10-22T03:45:37;36.07;;;15.57;;
75823;SDS011;64457;51.976;9.834;2022-10-22T03:48:05;32.43;;;15.60;;
75823;SDS011;64457;51.976;9.834;2022-10-22T03:50:32;35.87;;;15.90;;
75823;SDS011;64457;51.976;9.834;2022-10-22T03:53:00;30.83;;;14.73;;
75823;SDS011;64457;51.976;9.834;2022-10-22T03:55:29;29.30;;;15.03;;
75823;SDS011;64457;51.976;9.834;2022-10-22T03:57:56;29.87;;;15.23;;
75823;SDS011;64457;51.976;9.834;2022-10-22T04:00:24;37.33;;;14.10;;
75823;SDS011;64457;51.976;9.834;2022-10-22T04:02:54;28.23;;;14.70;;
75823;SDS011;64457;51.976;9.834;2022-10-22T04:05:22;28.87;;;15.20;;
75823;SDS011;64457;51.976;9.834;2022-10-22T04:07:49;32.87;;;14.10;;
75823;SDS011;64457;51.976;9.834;2022-10-22T04:10:17;28.40;;;13.17;;
75823;SDS011;64457;51.976;9.834;2022-10-22T04:12:47;29.83;;;13.27;;
75823;SDS011;64457;51.976;9.834;2022-10-22T04:15:15;30.37;;;14.93;;
75823;SDS011;64457;51.976;9.834;2022-10-22T04:17:42;31.20;;;15.17;;
75823;SDS011;64457;51.976;9.834;2022-10-22T04:20:11;33.50;;;15.80;;
75823;SDS011;64457;51.976;9.834;2022-10-22T04:22:40;33.03;;;16.63;;
75823;SDS011;64457;51.976;9.834;2022-10-22T04:25:08;35.97;;;17.43;;
75823;SDS011;64457;51.976;9.834;2022-10-22T04:27:36;34.40;;;15.93;;
75823;SDS011;64457;51.976;9.834;2022-10-22T04:30:06;33.53;;;16.30;;
75823;SDS011;64457;51.976;9.834;2022-10-22T04:32:37;37.20;;;17.60;;
75823;SDS011;64457;51.976;9.834;2022-10-22T04:35:06;32.60;;;16.53;;
75823;SDS011;64457;51.976;9.834;2022-10-22T04:37:34;39.60;;;17.27;;
75823;SDS011;64457;51.976;9.834;2022-10-22T04:40:07;36.80;;;18.63;;
75823;SDS011;64457;51.976;9.834;2022-10-22T04:42:36;35.30;;;17.30;;
75823;SDS011;64457;51.976;9.834;2022-10-22T04:45:06;33.00;;;16.20;;
75823;SDS011;64457;51.976;9.834;2022-10-22T04:47:35;33.70;;;16.57;;
75823;SDS011;64457;51.976;9.834;2022-10-22T04:50:06;36.10;;;17.73;;
75823;SDS011;64457;51.976;9.834;2022-10-22T04:52:34;36.77;;;16.93;;
75823;SDS011;64457;51.976;9.834;2022-10-22T04:55:04;42.10;;;16.97;;
75823;SDS011;64457;51.976;9.834;2022-10-22T04:57:37;29.57;;;15.70;;
75823;SDS011;64457;51.976;9.834;2022-10-22T05:00:15;34.20;;;16.20;;
75823;SDS011;64457;51.976;9.834;2022-10-22T05:02:49;29.07;;;15.40;;
75823;SDS011;64457;51.976;9.834;2022-10-22T05:05:17;33.97;;;17.53;;
75823;SDS011;64457;51.976;9.834;2022-10-22T05:07:55;37.53;;;16.40;;
75823;SDS011;64457;51.976;9.834;2022-10-22T05:10:24;34.57;;;16.37;;
75823;SDS011;64457;51.976;9.834;2022-10-22T05:12:55;31.63;;;16.83;;
75823;SDS011;64457;51.976;9.834;2022-10-22T05:15:25;35.40;;;15.17;;
75823;SDS011;64457;51.976;9.834;2022-10-22T05:18:09;34.40;;;15.20;;
75823;SDS011;64457;51.976;9.834;2022-10-22T05:20:43;35.97;;;16.70;;
75823;SDS011;64457;51.976;9.834;2022-10-22T05:23:49;42.13;;;15.93;;
75823;SDS011;64457;51.976;9.834;2022-10-22T05:26:47;32.20;;;14.37;;
75823;SDS011;64457;51.976;9.834;2022-10-22T05:29:16;33.13;;;14.53;;
75823;SDS011;64457;51.976;9.834;2022-10-22T05:31:46;30.80;;;15.00;;
75823;SDS011;64457;51.976;9.834;2022-10-22T05:34:14;35.00;;;17.07;;
75823;SDS011;64457;51.976;9.834;2022-10-22T05:36:45;30.63;;;15.50;;
75823;SDS011;64457;51.976;9.834;2022-10-22T05:39:13;37.43;;;16.63;;
75823;SDS011;64457;51.976;9.834;2022-10-22T05:41:41;37.00;;;15.87;;
75823;SDS011;64457;51.976;9.834;2022-10-22T05:44:10;32.30;;;16.83;;
75823;SDS011;64457;51.976;9.834;2022-10-22T05:46:40;34.20;;;15.47;;
75823;SDS011;64457;51.976;9.834;2022-10-22T05:49:14;47.17;;;17.53;;
75823;SDS011;64457;51.976;9.834;2022-10-22T05:52:01;32.00;;;14.60;;
75823;SDS011;64457;51.976;9.834;2022-10-22T05:54:38;29.33;;;14.07;;
75823;SDS011;64457;51.976;9.834;2022-10-22T05:57:13;34.53;;;14.20;;
75823;SDS011;64457;51.976;9.834;2022-10-22T05:59:42;26.40;;;13.90;;
75823;SDS011;64457;51.976;9.834;2022-10-22T06:02:10;26.00;;;13.40;;
75823;SDS011;64457;51.976;9.834;2022-10-22T06:04:40;25.53;;;13.33;;
75823;SDS011;64457;51.976;9.834;2022-10-22T06:07:07;32.50;;;13.57;;
75823;SDS011;64457;51.976;9.834;2022-10-22T06:09:43;30.03;;;13.93;;
75823;SDS011;64457;51.976;9.834;2022-10-22T06:12:27;25.03;;;12.63;;
75823;SDS011;64457;51.976;9.834;2022-10-22T06:14:56;28.37;;;15.10;;
75823;SDS011;64457;51.976;9.834;2022-10-22T06:17:24;34.47;;;14.73;;
75823;SDS011;64457;51.976;9.834;2022-10-22T06:19:55;30.97;;;14.50;;
75823;SDS011;64457;51.976;9.834;2022-10-22T06:22:26;32.53;;;15.00;;
75823;SDS011;64457;51.976;9.834;2022-10-22T06:24:56;28.40;;;14.67;;
75823;SDS011;64457;51.976;9.834;2022-10-22T06:27:24;32.80;;;17.10;;
75823;SDS011;64457;51.976;9.834;2022-10-22T06:29:51;31.70;;;16.20;;
75823;SDS011;64457;51.976;9.834;2022-10-22T06:32:27;38.47;;;15.50;;
75823;SDS011;64457;51.976;9.834;2022-10-22T06:35:05;37.53;;;15.53;;
75823;SDS011;64457;51.976;9.834;2022-10-22T06:37:35;28.50;;;14.60;;
75823;SDS011;64457;51.976;9.834;2022-10-22T06:40:05;31.87;;;15.00;;
75823;SDS011;64457;51.976;9.834;2022-10-22T06:42:44;38.77;;;14.80;;
75823;SDS011;64457;51.976;9.834;2022-10-22T06:45:12;31.10;;;15.43;;
75823;SDS011;64457;51.976;9.834;2022-10-22T06:47:40;31.33;;;15.40;;
75823;SDS011;64457;51.976;9.834;2022-10-22T06:50:10;25.70;;;14.07;;
75823;SDS011;64457;51.976;9.834;2022-10-22T06:52:37;33.60;;;15.10;;
75823;SDS011;64457;51.976;9.834;2022-10-22T06:55:07;34.77;;;15.80;;
75823;SDS011;64457;51.976;9.834;2022-10-22T06:57:35;24.20;;;13.90;;
75823;SDS011;64457;51.976;9.834;2022-10-22T07:00:04;36.43;;;16.20;;
75823;SDS011;64457;51.976;9.834;2022-10-22T07:02:33;29.63;;;14.17;;
75823;SDS011;64457;51.976;9.834;2022-10-22T07:05:01;28.50;;;15.23;;
75823;SDS011;64457;51.976;9.834;2022-10-22T07:07:31;25.80;;;14.80;;
75823;SDS011;64457;51.976;9.834;2022-10-22T07:09:58;29.03;;;14.63;;
75823;SDS011;64457;51.976;9.834;2022-10-22T07:12:27;33.60;;;16.07;;
75823;SDS011;64457;51.976;9.834;2022-10-22T07:14:54;29.60;;;15.53;;
75823;SDS011;64457;51.976;9.834;2022-10-22T07:17:27;29.57;;;14.27;;
75823;SDS011;64457;51.976;9.834;2022-10-22T07:20:10;27.63;;;15.20;;
75823;SDS011;64457;51.976;9.834;2022-10-22T07:22:39;28.47;;;16.20;;
75823;SDS011;64457;51.976;9.834;2022-10-22T07:25:09;36.87;;;14.97;;
75823;SDS011;64457;51.976;9.834;2022-10-22T07:27:38;32.93;;;16.23;;
75823;SDS011;64457;51.976;9.834;2022-10-22T07:30:10;25.60;;;14.93;;
75823;SDS011;64457;51.976;9.834;2022-10-22T07:32:42;26.17;;;14.23;;
75823;SDS011;64457;51.976;9.834;2022-10-22T07:35:09;27.37;;;14.60;;
75823;SDS011;64457;51.976;9.834;2022-10-22T07:37:37;38.43;;;15.03;;
75823;SDS011;64457;51.976;9.834;2022-10-22T07:40:07;29.67;;;14.93;;
75823;SDS011;64457;51.976;9.834;2022-10-22T07:42:35;28.10;;;14.83;;
75823;SDS011;64457;51.976;9.834;2022-10-22T07:45:02;26.37;;;14.50;;
75823;SDS011;64457;51.976;9.834;2022-10-22T07:47:30;19.97;;;11.90;;
75823;SDS011;64457;51.976;9.834;2022-10-22T07:49:57;22.80;;;12.03;;
75823;SDS011;64457;51.976;9.834;2022-10-22T07:52:25;19.70;;;11.63;;
75823;SDS011;64457;51.976;9.834;2022-10-22T07:54:52;19.53;;;10.37;;
75823;SDS011;64457;51.976;9.834;2022-10-22T07:57:21;18.37;;;9.57;;
75823;SDS011;64457;51.976;9.834;2022-10-22T07:59:49;15.50;;;6.90;;
75823;SDS011;64457;51.976;9.834;2022-10-22T08:02:16;13.13;;;7.10;;
75823;SDS011;64457;51.976;9.834;2022-10-22T08:04:44;13.33;;;5.67;;
75823;SDS011;64457;51.976;9.834;2022-10-22T08:07:11;13.43;;;5.50;;
75823;SDS011;64457;51.976;9.834;2022-10-22T08:09:39;11.73;;;5.60;;
75823;SDS011;64457;51.976;9.834;2022-10-22T08:12:06;11.80;;;5.60;;
75823;SDS011;64457;51.976;9.834;2022-10-22T08:14:35;12.60;;;5.17;;
75823;SDS011;64457;51.976;9.834;2022-10-22T08:17:03;13.57;;;4.27;;
75823;SDS011;64457;51.976;9.834;2022-10-22T08:19:30;9.80;;;3.63;;
75823;SDS011;64457;51.976;9.834;2022-10-22T08:21:57;14.80;;;3.60;;
75823;SDS011;64457;51.976;9.834;2022-10-22T08:24:25;16.10;;;4.00;;
75823;SDS011;64457;51.976;9.834;2022-10-22T08:26:54;9.10;;;4.00;;
75823;SDS011;64457;51.976;9.834;2022-10-22T08:29:21;16.07;;;3.60;;
75823;SDS011;64457;51.976;9.834;2022-10-22T08:31:51;9.50;;;3.53;;
75823;SDS011;64457;51.976;9.834;2022-10-22T08:34:25;11.47;;;4.37;;
75823;SDS011;64457;51.976;9.834;2022-10-22T08:36:55;14.50;;;5.23;;
75823;SDS011;64457;51.976;9.834;2022-10-22T08:39:23;13.97;;;5.87;;
75823;SDS011;64457;51.976;9.834;2022-10-22T08:41:53;12.80;;;4.73;;
75823;SDS011;64457;51.976;9.834;2022-10-22T08:44:32;10.37;;;5.20;;
75823;SDS011;64457;51.976;9.834;2022-10-22T08:47:26;13.63;;;4.77;;
75823;SDS011;64457;51.976;9.834;2022-10-22T08:50:17;13.60;;;5.13;;
75823;SDS011;64457;51.976;9.834;2022-10-22T08:52:52;11.93;;;4.73;;
75823;SDS011;64457;51.976;9.834;2022-10-22T08:55:24;11.10;;;4.80;;
75823;SDS011;64457;51.976;9.834;2022-10-22T08:57:54;11.47;;;4.90;;
75823;SDS011;64457;51.976;9.834;2022-10-22T09:00:29;13.07;;;4.80;;
75823;SDS011;64457;51.976;9.834;2022-10-22T09:06:04;11.87;;;5.20;;
75823;SDS011;64457;51.976;9.834;2022-10-22T09:08:37;10.83;;;4.43;;
75823;SDS011;64457;51.976;9.834;2022-10-22T09:11:12;11.33;;;4.60;;
75823;SDS011;64457;51.976;9.834;2022-10-22T09:13:44;13.67;;;4.73;;
75823;SDS011;64457;51.976;9.834;2022-10-22T09:16:16;12.70;;;5.23;;
75823;SDS011;64457;51.976;9.834;2022-10-22T09:18:48;10.20;;;3.87;;
75823;SDS011;64457;51.976;9.834;2022-10-22T09:21:35;11.77;;;3.70;;
75823;SDS011;64457;51.976;9.834;2022-10-22T09:24:08;9.77;;;3.50;;
75823;SDS011;64457;51.976;9.834;2022-10-22T09:26:39;14.43;;;3.30;;
75823;SDS011;64457;51.976;9.834;2022-10-22T09:29:11;10.87;;;3.57;;
75823;SDS011;64457;51.976;9.834;2022-10-22T09:31:42;11.20;;;3.63;;
75823;SDS011;64457;51.976;9.834;2022-10-22T09:34:12;15.17;;;3.20;;
75823;SDS011;64457;51.976;9.834;2022-10-22T09:36:41;12.20;;;3.40;;
75823;SDS011;64457;51.976;9.834;2022-10-22T09:39:20;7.40;;;2.80;;
75823;SDS011;64457;51.976;9.834;2022-10-22T09:41:49;16.47;;;2.63;;
75823;SDS011;64457;51.976;9.834;2022-10-22T09:44:17;8.77;;;2.67;;
75823;SDS011;64457;51.976;9.834;2022-10-22T09:46:44;8.57;;;2.47;;
75823;SDS011;64457;51.976;9.834;2022-10-22T09:49:12;12.80;;;2.33;;
75823;SDS011;64457;51.976;9.834;2022-10-22T09:51:49;9.00;;;2.70;;
75823;SDS011;64457;51.976;9.834;2022-10-22T09:54:19;12.00;;;2.83;;
75823;SDS011;64457;51.976;9.834;2022-10-22T09:56:50;8.23;;;2.43;;
75823;SDS011;64457;51.976;9.834;2022-10-22T09:59:24;7.33;;;2.67;;
75823;SDS011;64457;51.976;9.834;2022-10-22T10:02:01;11.97;;;2.50;;
75823;SDS011;64457;51.976;9.834;2022-10-22T10:04:32;7.80;;;2.50;;
75823;SDS011;64457;51.976;9.834;2022-10-22T10:07:02;12.10;;;2.80;;
75823;SDS011;64457;51.976;9.834;2022-10-22T10:09:30;10.37;;;3.03;;
75823;SDS011;64457;51.976;9.834;2022-10-22T10:12:03;10.43;;;2.53;;
75823;SDS011;64457;51.976;9.834;2022-10-22T10:14:41;8.43;;;2.90;;
75823;SDS011;64457;51.976;9.834;2022-10-22T10:17:21;11.53;;;3.00;;
75823;SDS011;64457;51.976;9.834;2022-10-22T10:20:00;10.13;;;3.80;;
75823;SDS011;64457;51.976;9.834;2022-10-22T10:22:43;10.87;;;3.40;;
75823;SDS011;64457;51.976;9.834;2022-10-22T10:25:34;9.90;;;3.13;;
75823;SDS011;64457;51.976;9.834;2022-10-22T10:28:19;16.03;;;3.00;;
75823;SDS011;64457;51.976;9.834;2022-10-22T10:30:55;13.80;;;3.60;;
75823;SDS011;64457;51.976;9.834;2022-10-22T10:33:32;17.70;;;4.07;;
75823;SDS011;64457;51.976;9.834;2022-10-22T10:36:11;11.93;;;3.17;;
75823;SDS011;64457;51.976;9.834;2022-10-22T10:38:49;11.40;;;3.70;;
75823;SDS011;64457;51.976;9.834;2022-10-22T10:41:26;14.60;;;2.93;;
75823;SDS011;64457;51.976;9.834;2022-10-22T10:44:23;11.40;;;3.40;;
75823;SDS011;64457;51.976;9.834;2022-10-22T10:47:17;10.50;;;2.80;;
75823;SDS011;64457;51.976;9.834;2022-10-22T10:49:57;8.30;;;3.00;;
75823;SDS011;64457;51.976;9.834;2022-10-22T10:52:39;9.97;;;3.20;;
75823;SDS011;64457;51.976;9.834;2022-10-22T10:55:15;9.37;;;3.20;;
75823;SDS011;64457;51.976;9.834;2022-10-22T10:57:52;10.77;;;3.43;;
75823;SDS011;64457;51.976;9.834;2022-10-22T11:00:26;10.80;;;2.83;;
75823;SDS011;64457;51.976;9.834;2022-10-22T11:03:03;9.60;;;2.70;;
75823;SDS011;64457;51.976;9.834;2022-10-22T11:05:57;13.10;;;2.80;;
75823;SDS011;64457;51.976;9.834;2022-10-22T11:08:28;13.70;;;2.87;;
75823;SDS011;64457;51.976;9.834;2022-10-22T11:10:59;11.30;;;3.10;;
75823;SDS011;64457;51.976;9.834;2022-10-22T11:13:30;16.40;;;3.57;;
75823;SDS011;64457;51.976;9.834;2022-10-22T11:16:03;19.63;;;3.20;;
75823;SDS011;64457;51.976;9.834;2022-10-22T11:18:39;11.43;;;3.50;;
75823;SDS011;64457;51.976;9.834;2022-10-22T11:21:16;9.03;;;2.60;;
75823;SDS011;64457;51.976;9.834;2022-10-22T11:23:47;13.43;;;3.30;;
75823;SDS011;64457;51.976;9.834;2022-10-22T11:26:23;8.10;;;2.77;;
75823;SDS011;64457;51.976;9.834;2022-10-22T11:28:57;11.93;;;3.33;;
75823;SDS011;64457;51.976;9.834;2022-10-22T11:31:27;12.53;;;3.23;;
75823;SDS011;64457;51.976;9.834;2022-10-22T11:33:57;13.53;;;2.93;;
75823;SDS011;64457;51.976;9.834;2022-10-22T11:36:31;10.80;;;3.20;;
75823;SDS011;64457;51.976;9.834;2022-10-22T11:39:01;12.10;;;3.10;;
75823;SDS011;64457;51.976;9.834;2022-10-22T11:41:31;12.23;;;2.63;;
75823;SDS011;64457;51.976;9.834;2022-10-22T11:44:07;10.33;;;2.87;;
75823;SDS011;64457;51.976;9.834;2022-10-22T11:46:43;14.70;;;2.97;;
75823;SDS011;64457;51.976;9.834;2022-10-22T11:49:18;20.60;;;3.30;;
75823;SDS011;64457;51.976;9.834;2022-10-22T11:51:50;11.20;;;3.00;;
75823;SDS011;64457;51.976;9.834;2022-10-22T11:54:37;7.93;;;2.50;;
75823;SDS011;64457;51.976;9.834;2022-10-22T11:57:19;14.67;;;3.47;;
75823;SDS011;64457;51.976;9.834;2022-10-22T12:00:06;13.13;;;2.07;;
75823;SDS011;64457;51.976;9.834;2022-10-22T12:02:42;15.00;;;3.00;;
75823;SDS011;64457;51.976;9.834;2022-10-22T12:10:59;8.63;;;2.30;;
75823;SDS011;64457;51.976;9.834;2022-10-22T12:13:49;8.73;;;2.27;;
75823;SDS011;64457;51.976;9.834;2022-10-22T12:16:41;16.80;;;2.90;;
75823;SDS011;64457;51.976;9.834;2022-10-22T12:19:12;14.20;;;1.87;;
75823;SDS011;64457;51.976;9.834;2022-10-22T12:21:44;10.60;;;2.60;;
75823;SDS011;64457;51.976;9.834;2022-10-22T12:24:14;13.03;;;2.37;;
75823;SDS011;64457;51.976;9.834;2022-10-22T12:26:44;9.63;;;2.13;;
75823;SDS011;64457;51.976;9.834;2022-10-22T12:32:01;10.80;;;2.83;;
75823;SDS011;64457;51.976;9.834;2022-10-22T12:34:29;9.50;;;2.30;;
75823;SDS011;64457;51.976;9.834;2022-10-22T12:36:56;9.30;;;2.33;;
75823;SDS011;64457;51.976;9.834;2022-10-22T12:39:24;11.03;;;2.60;;
75823;SDS011;64457;51.976;9.834;2022-10-22T12:41:53;7.90;;;1.97;;
75823;SDS011;64457;51.976;9.834;2022-10-22T12:44:21;9.60;;;2.70;;
75823;SDS011;64457;51.976;9.834;2022-10-22T12:46:49;11.30;;;2.27;;
75823;SDS011;64457;51.976;9.834;2022-10-22T12:49:18;12.93;;;2.17;;
75823;SDS011;64457;51.976;9.834;2022-10-22T12:51:47;11.77;;;2.43;;
75823;SDS011;64457;51.976;9.834;2022-10-22T12:54:19;12.90;;;2.30;;
75823;SDS011;64457;51.976;9.834;2022-10-22T12:56:53;8.93;;;2.30;;
75823;SDS011;64457;51.976;9.834;2022-10-22T12:59:23;11.93;;;2.57;;
75823;SDS011;64457;51.976;9.834;2022-10-22T13:01:57;14.73;;;2.40;;
75823;SDS011;64457;51.976;9.834;2022-10-22T13:04:31;19.57;;;2.90;;
75823;SDS011;64457;51.976;9.834;2022-10-22T13:07:05;13.20;;;1.80;;
75823;SDS011;64457;51.976;9.834;2022-10-22T13:09:43;13.27;;;1.97;;
75823;SDS011;64457;51.976;9.834;2022-10-22T13:12:12;9.13;;;2.10;;
75823;SDS011;64457;51.976;9.834;2022-10-22T13:14:40;8.93;;;2.30;;
75823;SDS011;64457;51.976;9.834;2022-10-22T13:17:12;8.13;;;2.13;;
75823;SDS011;64457;51.976;9.834;2022-10-22T13:19:42;14.87;;;2.90;;
75823;SDS011;64457;51.976;9.834;2022-10-22T13:22:25;12.70;;;2.77;;
75823;SDS011;64457;51.976;9.834;2022-10-22T13:24:57;8.90;;;1.77;;
75823;SDS011;64457;51.976;9.834;2022-10-22T13:27:29;13.23;;;2.30;;
75823;SDS011;64457;51.976;9.834;2022-10-22T13:29:59;11.47;;;1.90;;
75823;SDS011;64457;51.976;9.834;2022-10-22T13:32:36;7.40;;;1.67;;
75823;SDS011;64457;51.976;9.834;2022-10-22T13:35:04;13.63;;;2.47;;
75823;SDS011;64457;51.976;9.834;2022-10-22T13:37:32;8.50;;;1.70;;
75823;SDS011;64457;51.976;9.834;2022-10-22T13:40:00;10.43;;;2.17;;
75823;SDS011;64457;51.976;9.834;2022-10-22T13:42:27;11.80;;;2.20;;
75823;SDS011;64457;51.976;9.834;2022-10-22T13:44:54;8.40;;;1.80;;
75823;SDS011;64457;51.976;9.834;2022-10-22T13:47:25;8.87;;;1.90;;
75823;SDS011;64457;51.976;9.834;2022-10-22T13:49:55;6.30;;;1.70;;
75823;SDS011;64457;51.976;9.834;2022-10-22T13:52:27;8.20;;;1.80;;
75823;SDS011;64457;51.976;9.834;2022-10-22T13:54:59;9.37;;;1.73;;
75823;SDS011;64457;51.976;9.834;2022-10-22T13:57:27;7.63;;;1.50;;
75823;SDS011;64457;51.976;9.834;2022-10-22T13:59:54;8.43;;;2.00;;
75823;SDS011;64457;51.976;9.834;2022-10-22T14:02:22;8.93;;;2.07;;
75823;SDS011;64457;51.976;9.834;2022-10-22T14:04:49;10.93;;;2.30;;
75823;SDS011;64457;51.976;9.834;2022-10-22T14:07:18;8.80;;;2.10;;
75823;SDS011;64457;51.976;9.834;2022-10-22T14:09:46;10.90;;;2.53;;
75823;SDS011;64457;51.976;9.834;2022-10-22T14:12:14;14.80;;;2.80;;
75823;SDS011;64457;51.976;9.834;2022-10-22T14:14:42;7.80;;;2.00;;
75823;SDS011;64457;51.976;9.834;2022-10-22T14:17:10;10.00;;;2.70;;
75823;SDS011;64457;51.976;9.834;2022-10-22T14:19:41;11.83;;;2.87;;
75823;SDS011;64457;51.976;9.834;2022-10-22T14:22:12;11.53;;;2.57;;
75823;SDS011;64457;51.976;9.834;2022-10-22T14:24:41;11.83;;;2.87;;
75823;SDS011;64457;51.976;9.834;2022-10-22T14:27:10;10.70;;;2.80;;
75823;SDS011;64457;51.976;9.834;2022-10-22T14:29:38;8.70;;;2.47;;
75823;SDS011;64457;51.976;9.834;2022-10-22T14:32:10;11.20;;;3.13;;
75823;SDS011;64457;51.976;9.834;2022-10-22T14:34:39;9.90;;;2.63;;
75823;SDS011;64457;51.976;9.834;2022-10-22T14:37:11;9.37;;;2.70;;
75823;SDS011;64457;51.976;9.834;2022-10-22T14:39:42;8.57;;;2.63;;
75823;SDS011;64457;51.976;9.834;2022-10-22T14:42:11;10.40;;;2.80;;
75823;SDS011;64457;51.976;9.834;2022-10-22T14:44:40;11.03;;;2.77;;
75823;SDS011;64457;51.976;9.834;2022-10-22T14:47:08;8.80;;;2.60;;
75823;SDS011;64457;51.976;9.834;2022-10-22T14:49:35;7.83;;;2.50;;
75823;SDS011;64457;51.976;9.834;2022-10-22T14:52:02;13.23;;;2.27;;
75823;SDS011;64457;51.976;9.834;2022-10-22T14:54:30;13.17;;;2.50;;
75823;SDS011;64457;51.976;9.834;2022-10-22T14:56:58;12.23;;;3.27;;
75823;SDS011;64457;51.976;9.834;2022-10-22T14:59:26;9.03;;;2.70;;
75823;SDS011;64457;51.976;9.834;2022-10-22T15:01:53;11.97;;;2.63;;
75823;SDS011;64457;51.976;9.834;2022-10-22T15:04:21;12.60;;;3.73;;
75823;SDS011;64457;51.976;9.834;2022-10-22T15:06:50;12.03;;;2.90;;
75823;SDS011;64457;51.976;9.834;2022-10-22T15:09:21;16.37;;;3.40;;
75823;SDS011;64457;51.976;9.834;2022-10-22T15:11:48;14.60;;;3.77;;
75823;SDS011;64457;51.976;9.834;2022-10-22T15:14:17;13.13;;;3.17;;